sensor_id;sensor_type;location;lat;lon;timestamp;temperature;humidity
64620;DHT22;51029;51.058;13.826;2023-07-13T00:01:28;21.20;99.90
64620;DHT22;51029;51.058;13.826;2023-07-13T00:03:55;21.10;99.90
64620;DHT22;51029;51.058;13.826;2023-07-13T00:06:21;21.10;99.90
64620;DHT22;51029;51.058;13.826;2023-07-13T00:08:47;21.10;99.90
64620;DHT22;51029;51.058;13.826;2023-07-13T00:11:15;21.10;99.90
64620;DHT22;51029;51.058;13.826;2023-07-13T00:13:41;21.10;99.90
64620;DHT22;51029;51.058;13.826;2023-07-13T00:16:08;21.10;99.90
64620;DHT22;51029;51.058;13.826;2023-07-13T00:18:34;21.10;99.90
64620;DHT22;51029;51.058;13.826;2023-07-13T00:20:59;21.20;99.90
64620;DHT22;51029;51.058;13.826;2023-07-13T00:23:31;21.20;99.90
64620;DHT22;51029;51.058;13.826;2023-07-13T00:25:59;21.30;99.90
64620;DHT22;51029;51.058;13.826;2023-07-13T00:28:25;21.20;99.90
64620;DHT22;51029;51.058;13.826;2023-07-13T00:30:50;21.20;99.90
64620;DHT22;51029;51.058;13.826;2023-07-13T00:33:16;21.20;99.90
64620;DHT22;51029;51.058;13.826;2023-07-13T00:35:41;21.20;99.90
64620;DHT22;51029;51.058;13.826;2023-07-13T00:38:09;21.10;99.90
64620;DHT22;51029;51.058;13.826;2023-07-13T00:40:34;21.00;99.90
64620;DHT22;51029;51.058;13.826;2023-07-13T00:43:00;21.00;99.90
64620;DHT22;51029;51.058;13.826;2023-07-13T00:47:51;20.80;99.90
64620;DHT22;51029;51.058;13.826;2023-07-13T00:50:18;20.70;99.90
64620;DHT22;51029;51.058;13.826;2023-07-13T00:52:47;20.70;99.90
64620;DHT22;51029;51.058;13.826;2023-07-13T00:55:14;20.70;99.90
64620;DHT22;51029;51.058;13.826;2023-07-13T00:57:41;20.70;99.90
64620;DHT22;51029;51.058;13.826;2023-07-13T01:00:07;20.70;99.90
64620;DHT22;51029;51.058;13.826;2023-07-13T01:02:36;20.70;99.90
64620;DHT22;51029;51.058;13.826;2023-07-13T01:05:09;20.60;99.90
64620;DHT22;51029;51.058;13.826;2023-07-13T01:07:35;20.40;99.90
64620;DHT22;51029;51.058;13.826;2023-07-13T01:10:02;20.20;99.90
64620;DHT22;51029;51.058;13.826;2023-07-13T01:12:27;20.20;99.90
64620;DHT22;51029;51.058;13.826;2023-07-13T01:14:58;20.30;99.90
64620;DHT22;51029;51.058;13.826;2023-07-13T01:17:24;20.20;99.90
64620;DHT22;51029;51.058;13.826;2023-07-13T01:19:49;20.20;99.90
64620;DHT22;51029;51.058;13.826;2023-07-13T01:22:16;20.10;99.90
64620;DHT22;51029;51.058;13.826;2023-07-13T01:24:45;19.90;99.90
64620;DHT22;51029;51.058;13.826;2023-07-13T01:27:14;19.80;99.90
64620;DHT22;51029;51.058;13.826;2023-07-13T01:29:41;19.60;99.90
64620;DHT22;51029;51.058;13.826;2023-07-13T01:32:24;19.70;99.90
64620;DHT22;51029;51.058;13.826;2023-07-13T01:34:51;19.70;99.90
64620;DHT22;51029;51.058;13.826;2023-07-13T01:37:19;19.70;99.90
64620;DHT22;51029;51.058;13.826;2023-07-13T01:39:45;19.60;99.90
64620;DHT22;51029;51.058;13.826;2023-07-13T01:42:10;19.30;99.90
64620;DHT22;51029;51.058;13.826;2023-07-13T01:44:36;19.20;99.90
64620;DHT22;51029;51.058;13.826;2023-07-13T01:47:03;19.10;99.90
64620;DHT22;51029;51.058;13.826;2023-07-13T01:49:28;19.10;99.90
64620;DHT22;51029;51.058;13.826;2023-07-13T01:51:54;19.00;99.90
64620;DHT22;51029;51.058;13.826;2023-07-13T01:54:19;18.90;99.90
64620;DHT22;51029;51.058;13.826;2023-07-13T01:56:45;18.80;99.90
64620;DHT22;51029;51.058;13.826;2023-07-13T01:59:10;18.90;99.90
64620;DHT22;51029;51.058;13.826;2023-07-13T02:01:36;18.90;99.90
64620;DHT22;51029;51.058;13.826;2023-07-13T02:04:02;19.00;99.90
64620;DHT22;51029;51.058;13.826;2023-07-13T02:06:27;19.10;99.90
64620;DHT22;51029;51.058;13.826;2023-07-13T02:08:53;19.10;99.90
64620;DHT22;51029;51.058;13.826;2023-07-13T02:11:19;19.20;99.90
64620;DHT22;51029;51.058;13.826;2023-07-13T02:13:45;19.20;99.90
64620;DHT22;51029;51.058;13.826;2023-07-13T02:16:10;19.10;99.90
64620;DHT22;51029;51.058;13.826;2023-07-13T02:18:36;19.10;99.90
64620;DHT22;51029;51.058;13.826;2023-07-13T02:21:01;19.10;99.90
64620;DHT22;51029;51.058;13.826;2023-07-13T02:23:28;19.20;99.90
64620;DHT22;51029;51.058;13.826;2023-07-13T02:25:57;19.20;99.90
64620;DHT22;51029;51.058;13.826;2023-07-13T02:28:23;19.20;99.90
64620;DHT22;51029;51.058;13.826;2023-07-13T02:30:49;19.20;99.90
64620;DHT22;51029;51.058;13.826;2023-07-13T02:33:14;19.20;99.90
64620;DHT22;51029;51.058;13.826;2023-07-13T02:35:40;19.20;99.90
64620;DHT22;51029;51.058;13.826;2023-07-13T02:38:06;19.20;99.90
64620;DHT22;51029;51.058;13.826;2023-07-13T02:40:32;19.20;99.90
64620;DHT22;51029;51.058;13.826;2023-07-13T02:42:59;19.10;99.90
64620;DHT22;51029;51.058;13.826;2023-07-13T02:45:25;19.10;99.90
64620;DHT22;51029;51.058;13.826;2023-07-13T02:47:50;19.10;99.90
64620;DHT22;51029;51.058;13.826;2023-07-13T02:50:16;19.00;99.90
64620;DHT22;51029;51.058;13.826;2023-07-13T02:52:42;19.00;99.90
64620;DHT22;51029;51.058;13.826;2023-07-13T02:55:07;18.90;99.90
64620;DHT22;51029;51.058;13.826;2023-07-13T02:57:33;18.80;99.90
64620;DHT22;51029;51.058;13.826;2023-07-13T03:00:00;18.70;99.90
64620;DHT22;51029;51.058;13.826;2023-07-13T03:02:25;18.80;99.90
64620;DHT22;51029;51.058;13.826;2023-07-13T03:04:54;18.80;99.90
64620;DHT22;51029;51.058;13.826;2023-07-13T03:07:20;18.80;99.90
64620;DHT22;51029;51.058;13.826;2023-07-13T03:09:45;18.80;99.90
64620;DHT22;51029;51.058;13.826;2023-07-13T03:12:11;18.80;99.90
64620;DHT22;51029;51.058;13.826;2023-07-13T03:14:36;18.70;99.90
64620;DHT22;51029;51.058;13.826;2023-07-13T03:17:02;18.70;99.90
64620;DHT22;51029;51.058;13.826;2023-07-13T03:19:27;18.70;99.90
64620;DHT22;51029;51.058;13.826;2023-07-13T03:21:53;18.70;99.90
64620;DHT22;51029;51.058;13.826;2023-07-13T03:24:19;18.70;99.90
64620;DHT22;51029;51.058;13.826;2023-07-13T03:26:44;18.70;99.90
64620;DHT22;51029;51.058;13.826;2023-07-13T03:29:10;18.70;99.90
64620;DHT22;51029;51.058;13.826;2023-07-13T03:31:37;18.70;99.90
64620;DHT22;51029;51.058;13.826;2023-07-13T03:34:02;18.60;99.90
64620;DHT22;51029;51.058;13.826;2023-07-13T03:36:29;18.60;99.90
64620;DHT22;51029;51.058;13.826;2023-07-13T03:38:58;18.60;99.90
64620;DHT22;51029;51.058;13.826;2023-07-13T03:41:24;18.60;99.90
64620;DHT22;51029;51.058;13.826;2023-07-13T03:43:51;18.60;99.90
64620;DHT22;51029;51.058;13.826;2023-07-13T03:46:17;18.60;99.90
64620;DHT22;51029;51.058;13.826;2023-07-13T03:48:45;18.60;99.90
64620;DHT22;51029;51.058;13.826;2023-07-13T03:51:12;18.50;99.90
64620;DHT22;51029;51.058;13.826;2023-07-13T03:53:41;18.50;99.90
64620;DHT22;51029;51.058;13.826;2023-07-13T03:56:07;18.50;99.90
64620;DHT22;51029;51.058;13.826;2023-07-13T03:58:39;18.60;99.90
64620;DHT22;51029;51.058;13.826;2023-07-13T04:01:06;18.60;99.90
64620;DHT22;51029;51.058;13.826;2023-07-13T04:03:33;18.50;99.90
64620;DHT22;51029;51.058;13.826;2023-07-13T04:06:00;18.50;99.90
64620;DHT22;51029;51.058;13.826;2023-07-13T04:08:27;18.50;99.90
64620;DHT22;51029;51.058;13.826;2023-07-13T04:10:52;18.50;99.90
64620;DHT22;51029;51.058;13.826;2023-07-13T04:13:18;18.50;99.90
64620;DHT22;51029;51.058;13.826;2023-07-13T04:15:44;18.50;99.90
64620;DHT22;51029;51.058;13.826;2023-07-13T04:18:09;18.60;99.90
64620;DHT22;51029;51.058;13.826;2023-07-13T04:20:35;18.70;99.90
64620;DHT22;51029;51.058;13.826;2023-07-13T04:23:00;18.90;99.90
64620;DHT22;51029;51.058;13.826;2023-07-13T04:25:26;19.20;99.90
64620;DHT22;51029;51.058;13.826;2023-07-13T04:27:52;19.30;99.90
64620;DHT22;51029;51.058;13.826;2023-07-13T04:30:18;19.40;99.90
64620;DHT22;51029;51.058;13.826;2023-07-13T04:32:44;19.40;99.90
64620;DHT22;51029;51.058;13.826;2023-07-13T04:35:09;19.30;99.90
64620;DHT22;51029;51.058;13.826;2023-07-13T04:37:35;19.40;99.90
64620;DHT22;51029;51.058;13.826;2023-07-13T04:40:01;19.50;99.90
64620;DHT22;51029;51.058;13.826;2023-07-13T04:42:26;19.60;99.90
64620;DHT22;51029;51.058;13.826;2023-07-13T04:44:52;19.70;99.90
64620;DHT22;51029;51.058;13.826;2023-07-13T04:47:18;19.70;99.90
64620;DHT22;51029;51.058;13.826;2023-07-13T04:49:44;19.80;99.90
64620;DHT22;51029;51.058;13.826;2023-07-13T04:52:10;19.90;99.90
64620;DHT22;51029;51.058;13.826;2023-07-13T04:54:36;19.80;99.90
64620;DHT22;51029;51.058;13.826;2023-07-13T04:57:03;19.80;99.90
64620;DHT22;51029;51.058;13.826;2023-07-13T04:59:29;19.80;99.90
64620;DHT22;51029;51.058;13.826;2023-07-13T05:01:55;19.70;99.90
64620;DHT22;51029;51.058;13.826;2023-07-13T05:04:20;19.70;99.90
64620;DHT22;51029;51.058;13.826;2023-07-13T05:06:46;19.70;99.90
64620;DHT22;51029;51.058;13.826;2023-07-13T05:09:11;19.60;99.90
64620;DHT22;51029;51.058;13.826;2023-07-13T05:11:38;19.50;99.90
64620;DHT22;51029;51.058;13.826;2023-07-13T05:14:03;19.50;99.90
64620;DHT22;51029;51.058;13.826;2023-07-13T05:16:29;19.50;99.90
64620;DHT22;51029;51.058;13.826;2023-07-13T05:18:54;19.60;99.90
64620;DHT22;51029;51.058;13.826;2023-07-13T05:21:20;19.70;99.90
64620;DHT22;51029;51.058;13.826;2023-07-13T05:23:47;20.00;99.90
64620;DHT22;51029;51.058;13.826;2023-07-13T05:26:12;20.20;99.90
64620;DHT22;51029;51.058;13.826;2023-07-13T05:28:38;20.40;99.90
64620;DHT22;51029;51.058;13.826;2023-07-13T05:31:05;20.50;99.90
64620;DHT22;51029;51.058;13.826;2023-07-13T05:33:31;20.60;99.90
64620;DHT22;51029;51.058;13.826;2023-07-13T05:35:57;20.70;99.90
64620;DHT22;51029;51.058;13.826;2023-07-13T05:38:23;20.80;99.90
64620;DHT22;51029;51.058;13.826;2023-07-13T05:40:49;20.80;99.90
64620;DHT22;51029;51.058;13.826;2023-07-13T05:43:15;20.80;99.90
64620;DHT22;51029;51.058;13.826;2023-07-13T05:45:41;20.80;99.90
64620;DHT22;51029;51.058;13.826;2023-07-13T05:48:06;20.70;99.90
64620;DHT22;51029;51.058;13.826;2023-07-13T05:50:32;20.70;99.90
64620;DHT22;51029;51.058;13.826;2023-07-13T05:52:57;20.70;99.90
64620;DHT22;51029;51.058;13.826;2023-07-13T05:55:23;20.60;99.90
64620;DHT22;51029;51.058;13.826;2023-07-13T05:57:49;20.50;99.90
64620;DHT22;51029;51.058;13.826;2023-07-13T06:00:15;20.40;99.90
64620;DHT22;51029;51.058;13.826;2023-07-13T06:02:41;20.50;99.90
64620;DHT22;51029;51.058;13.826;2023-07-13T06:05:07;20.40;99.90
64620;DHT22;51029;51.058;13.826;2023-07-13T06:07:33;20.40;99.90
64620;DHT22;51029;51.058;13.826;2023-07-13T06:09:58;20.40;99.90
64620;DHT22;51029;51.058;13.826;2023-07-13T06:12:25;20.30;99.90
64620;DHT22;51029;51.058;13.826;2023-07-13T06:14:50;20.30;99.90
64620;DHT22;51029;51.058;13.826;2023-07-13T06:17:16;20.30;99.90
64620;DHT22;51029;51.058;13.826;2023-07-13T06:19:41;20.50;99.90
64620;DHT22;51029;51.058;13.826;2023-07-13T06:22:07;20.40;99.90
64620;DHT22;51029;51.058;13.826;2023-07-13T06:24:32;20.40;99.90
64620;DHT22;51029;51.058;13.826;2023-07-13T06:26:58;20.50;99.90
64620;DHT22;51029;51.058;13.826;2023-07-13T06:29:23;20.50;99.90
64620;DHT22;51029;51.058;13.826;2023-07-13T06:31:49;20.70;99.90
64620;DHT22;51029;51.058;13.826;2023-07-13T06:34:15;20.70;99.90
64620;DHT22;51029;51.058;13.826;2023-07-13T06:36:40;20.90;99.90
64620;DHT22;51029;51.058;13.826;2023-07-13T06:39:06;21.10;99.90
64620;DHT22;51029;51.058;13.826;2023-07-13T06:41:32;21.20;99.90
64620;DHT22;51029;51.058;13.826;2023-07-13T06:43:58;21.40;99.90
64620;DHT22;51029;51.058;13.826;2023-07-13T06:46:24;21.40;99.90
64620;DHT22;51029;51.058;13.826;2023-07-13T06:48:50;21.40;99.90
64620;DHT22;51029;51.058;13.826;2023-07-13T06:51:16;21.60;99.90
64620;DHT22;51029;51.058;13.826;2023-07-13T06:53:41;21.80;99.90
64620;DHT22;51029;51.058;13.826;2023-07-13T06:56:09;21.90;99.90
64620;DHT22;51029;51.058;13.826;2023-07-13T06:58:36;22.20;99.90
64620;DHT22;51029;51.058;13.826;2023-07-13T07:01:02;22.40;99.90
64620;DHT22;51029;51.058;13.826;2023-07-13T07:03:27;22.40;99.90
64620;DHT22;51029;51.058;13.826;2023-07-13T07:05:53;22.50;99.90
64620;DHT22;51029;51.058;13.826;2023-07-13T07:08:18;22.80;99.90
64620;DHT22;51029;51.058;13.826;2023-07-13T07:10:44;23.00;99.90
64620;DHT22;51029;51.058;13.826;2023-07-13T07:13:10;23.00;99.90
64620;DHT22;51029;51.058;13.826;2023-07-13T07:15:36;23.00;99.90
64620;DHT22;51029;51.058;13.826;2023-07-13T07:18:02;22.90;99.90
64620;DHT22;51029;51.058;13.826;2023-07-13T07:20:28;23.00;99.90
64620;DHT22;51029;51.058;13.826;2023-07-13T07:22:53;23.30;99.90
64620;DHT22;51029;51.058;13.826;2023-07-13T07:25:19;23.30;99.90
64620;DHT22;51029;51.058;13.826;2023-07-13T07:27:45;23.20;99.90
64620;DHT22;51029;51.058;13.826;2023-07-13T07:30:11;23.30;99.90
64620;DHT22;51029;51.058;13.826;2023-07-13T07:32:37;23.20;99.90
64620;DHT22;51029;51.058;13.826;2023-07-13T07:35:02;23.00;99.90
64620;DHT22;51029;51.058;13.826;2023-07-13T07:37:28;22.70;99.90
64620;DHT22;51029;51.058;13.826;2023-07-13T07:39:53;22.60;99.90
64620;DHT22;51029;51.058;13.826;2023-07-13T07:42:19;22.50;99.90
64620;DHT22;51029;51.058;13.826;2023-07-13T07:44:44;22.60;99.90
64620;DHT22;51029;51.058;13.826;2023-07-13T07:47:10;22.80;99.90
64620;DHT22;51029;51.058;13.826;2023-07-13T07:49:36;23.00;99.90
64620;DHT22;51029;51.058;13.826;2023-07-13T07:52:02;23.10;99.90
64620;DHT22;51029;51.058;13.826;2023-07-13T07:54:28;23.40;99.90
64620;DHT22;51029;51.058;13.826;2023-07-13T07:56:53;23.70;99.90
64620;DHT22;51029;51.058;13.826;2023-07-13T07:59:19;23.90;99.90
64620;DHT22;51029;51.058;13.826;2023-07-13T08:01:44;24.00;99.90
64620;DHT22;51029;51.058;13.826;2023-07-13T08:04:12;24.10;99.90
64620;DHT22;51029;51.058;13.826;2023-07-13T08:06:37;24.10;99.90
64620;DHT22;51029;51.058;13.826;2023-07-13T08:09:03;24.20;99.90
64620;DHT22;51029;51.058;13.826;2023-07-13T08:11:29;24.30;99.90
64620;DHT22;51029;51.058;13.826;2023-07-13T08:13:55;24.60;99.90
64620;DHT22;51029;51.058;13.826;2023-07-13T08:16:21;24.80;99.90
64620;DHT22;51029;51.058;13.826;2023-07-13T08:18:47;25.00;99.90
64620;DHT22;51029;51.058;13.826;2023-07-13T08:21:12;25.10;99.90
64620;DHT22;51029;51.058;13.826;2023-07-13T08:23:38;24.90;99.90
64620;DHT22;51029;51.058;13.826;2023-07-13T08:26:04;24.90;99.90
64620;DHT22;51029;51.058;13.826;2023-07-13T08:28:30;24.80;99.90
64620;DHT22;51029;51.058;13.826;2023-07-13T08:31:03;24.70;99.90
64620;DHT22;51029;51.058;13.826;2023-07-13T08:33:29;24.70;99.90
64620;DHT22;51029;51.058;13.826;2023-07-13T08:35:54;24.80;99.90
64620;DHT22;51029;51.058;13.826;2023-07-13T08:38:20;25.20;99.90
64620;DHT22;51029;51.058;13.826;2023-07-13T08:40:54;25.70;99.90
64620;DHT22;51029;51.058;13.826;2023-07-13T08:43:26;26.00;99.90
64620;DHT22;51029;51.058;13.826;2023-07-13T08:46:17;26.40;99.90
64620;DHT22;51029;51.058;13.826;2023-07-13T08:48:47;27.10;99.90
64620;DHT22;51029;51.058;13.826;2023-07-13T08:53:57;28.40;98.90
64620;DHT22;51029;51.058;13.826;2023-07-13T08:56:29;28.20;97.90
64620;DHT22;51029;51.058;13.826;2023-07-13T08:59:00;28.20;95.30
64620;DHT22;51029;51.058;13.826;2023-07-13T09:01:54;29.00;92.40
64620;DHT22;51029;51.058;13.826;2023-07-13T09:04:32;29.20;90.20
64620;DHT22;51029;51.058;13.826;2023-07-13T09:07:09;28.90;89.00
64620;DHT22;51029;51.058;13.826;2023-07-13T09:09:59;28.50;90.50
64620;DHT22;51029;51.058;13.826;2023-07-13T09:12:40;28.20;90.50
64620;DHT22;51029;51.058;13.826;2023-07-13T09:17:52;27.60;91.00
64620;DHT22;51029;51.058;13.826;2023-07-13T09:22:53;27.10;89.60
64620;DHT22;51029;51.058;13.826;2023-07-13T09:25:32;27.50;90.40
64620;DHT22;51029;51.058;13.826;2023-07-13T09:28:22;28.30;89.60
64620;DHT22;51029;51.058;13.826;2023-07-13T09:33:19;29.00;84.40
64620;DHT22;51029;51.058;13.826;2023-07-13T09:35:44;29.10;80.20
64620;DHT22;51029;51.058;13.826;2023-07-13T09:38:15;28.80;76.50
64620;DHT22;51029;51.058;13.826;2023-07-13T09:40:46;28.20;76.20
64620;DHT22;51029;51.058;13.826;2023-07-13T09:43:17;28.00;78.10
64620;DHT22;51029;51.058;13.826;2023-07-13T09:45:46;28.20;80.40
64620;DHT22;51029;51.058;13.826;2023-07-13T09:48:13;28.10;78.00
64620;DHT22;51029;51.058;13.826;2023-07-13T09:50:40;28.30;76.60
64620;DHT22;51029;51.058;13.826;2023-07-13T09:53:12;28.50;77.50
64620;DHT22;51029;51.058;13.826;2023-07-13T09:55:39;28.30;76.60
64620;DHT22;51029;51.058;13.826;2023-07-13T09:58:17;27.80;79.30
64620;DHT22;51029;51.058;13.826;2023-07-13T10:01:03;27.50;80.10
64620;DHT22;51029;51.058;13.826;2023-07-13T10:03:35;27.70;83.00
64620;DHT22;51029;51.058;13.826;2023-07-13T10:08:37;28.60;79.20
64620;DHT22;51029;51.058;13.826;2023-07-13T10:11:11;28.50;76.60
64620;DHT22;51029;51.058;13.826;2023-07-13T10:13:42;29.80;74.50
64620;DHT22;51029;51.058;13.826;2023-07-13T10:16:09;31.40;70.40
64620;DHT22;51029;51.058;13.826;2023-07-13T10:18:49;31.20;67.10
64620;DHT22;51029;51.058;13.826;2023-07-13T10:21:20;31.00;66.10
64620;DHT22;51029;51.058;13.826;2023-07-13T10:23:50;31.30;66.60
64620;DHT22;51029;51.058;13.826;2023-07-13T10:26:22;31.10;64.00
64620;DHT22;51029;51.058;13.826;2023-07-13T10:28:52;31.30;63.50
64620;DHT22;51029;51.058;13.826;2023-07-13T10:31:19;32.00;61.90
64620;DHT22;51029;51.058;13.826;2023-07-13T10:33:45;31.90;60.10
64620;DHT22;51029;51.058;13.826;2023-07-13T10:36:27;31.20;60.00
64620;DHT22;51029;51.058;13.826;2023-07-13T10:38:55;32.00;57.50
64620;DHT22;51029;51.058;13.826;2023-07-13T10:41:24;31.90;56.60
64620;DHT22;51029;51.058;13.826;2023-07-13T10:43:54;32.70;54.30
64620;DHT22;51029;51.058;13.826;2023-07-13T10:46:23;32.20;55.10
64620;DHT22;51029;51.058;13.826;2023-07-13T10:48:55;32.70;54.90
64620;DHT22;51029;51.058;13.826;2023-07-13T10:51:22;34.20;54.10
64620;DHT22;51029;51.058;13.826;2023-07-13T10:54:21;35.50;49.70
64620;DHT22;51029;51.058;13.826;2023-07-13T10:56:50;34.70;48.50
64620;DHT22;51029;51.058;13.826;2023-07-13T10:59:23;34.10;49.50
64620;DHT22;51029;51.058;13.826;2023-07-13T11:01:58;34.90;49.50
64620;DHT22;51029;51.058;13.826;2023-07-13T11:04:26;34.60;49.20
64620;DHT22;51029;51.058;13.826;2023-07-13T11:06:57;35.10;47.50
64620;DHT22;51029;51.058;13.826;2023-07-13T11:09:33;38.40;44.30
64620;DHT22;51029;51.058;13.826;2023-07-13T11:12:01;36.60;41.50
64620;DHT22;51029;51.058;13.826;2023-07-13T11:16:54;35.40;43.40
64620;DHT22;51029;51.058;13.826;2023-07-13T11:25:00;37.40;39.10
64620;DHT22;51029;51.058;13.826;2023-07-13T11:33:10;42.80;30.20
64620;DHT22;51029;51.058;13.826;2023-07-13T11:38:22;41.60;31.00
64620;DHT22;51029;51.058;13.826;2023-07-13T11:40:51;40.80;31.60
64620;DHT22;51029;51.058;13.826;2023-07-13T11:43:19;43.10;30.10
64620;DHT22;51029;51.058;13.826;2023-07-13T11:45:44;43.40;29.00
64620;DHT22;51029;51.058;13.826;2023-07-13T11:48:29;44.00;28.00
64620;DHT22;51029;51.058;13.826;2023-07-13T11:51:00;42.40;27.70
64620;DHT22;51029;51.058;13.826;2023-07-13T11:53:28;42.20;28.60
64620;DHT22;51029;51.058;13.826;2023-07-13T11:55:55;44.30;27.40
64620;DHT22;51029;51.058;13.826;2023-07-13T11:58:24;46.20;26.00
64620;DHT22;51029;51.058;13.826;2023-07-13T12:00:51;46.70;23.90
64620;DHT22;51029;51.058;13.826;2023-07-13T12:03:21;45.00;24.80
64620;DHT22;51029;51.058;13.826;2023-07-13T12:08:47;45.60;24.40
64620;DHT22;51029;51.058;13.826;2023-07-13T12:11:16;42.10;25.50
64620;DHT22;51029;51.058;13.826;2023-07-13T12:13:44;41.50;27.30
64620;DHT22;51029;51.058;13.826;2023-07-13T12:18:52;43.20;27.10
64620;DHT22;51029;51.058;13.826;2023-07-13T12:21:19;46.30;24.70
64620;DHT22;51029;51.058;13.826;2023-07-13T12:23:48;45.60;24.50
64620;DHT22;51029;51.058;13.826;2023-07-13T12:26:15;47.60;23.60
64620;DHT22;51029;51.058;13.826;2023-07-13T12:28:55;48.00;22.00
64620;DHT22;51029;51.058;13.826;2023-07-13T12:31:39;48.20;21.70
64620;DHT22;51029;51.058;13.826;2023-07-13T12:34:15;46.60;22.20
64620;DHT22;51029;51.058;13.826;2023-07-13T12:36:55;47.50;22.00
64620;DHT22;51029;51.058;13.826;2023-07-13T12:39:25;47.90;21.00
64620;DHT22;51029;51.058;13.826;2023-07-13T12:41:53;50.00;20.50
64620;DHT22;51029;51.058;13.826;2023-07-13T12:44:27;50.60;20.30
64620;DHT22;51029;51.058;13.826;2023-07-13T12:46:56;50.20;19.60
64620;DHT22;51029;51.058;13.826;2023-07-13T12:49:32;44.00;21.70
64620;DHT22;51029;51.058;13.826;2023-07-13T12:52:11;39.30;25.30
64620;DHT22;51029;51.058;13.826;2023-07-13T12:54:39;40.80;25.00
64620;DHT22;51029;51.058;13.826;2023-07-13T12:57:05;38.20;26.80
64620;DHT22;51029;51.058;13.826;2023-07-13T12:59:34;37.30;27.70
64620;DHT22;51029;51.058;13.826;2023-07-13T13:02:02;37.70;27.90
64620;DHT22;51029;51.058;13.826;2023-07-13T13:04:28;37.50;27.80
64620;DHT22;51029;51.058;13.826;2023-07-13T13:07:05;34.90;29.50
64620;DHT22;51029;51.058;13.826;2023-07-13T13:09:34;35.00;30.80
64620;DHT22;51029;51.058;13.826;2023-07-13T13:12:00;39.60;27.80
64620;DHT22;51029;51.058;13.826;2023-07-13T13:14:25;42.40;24.70
64620;DHT22;51029;51.058;13.826;2023-07-13T13:16:52;42.80;24.40
64620;DHT22;51029;51.058;13.826;2023-07-13T13:19:22;42.70;24.00
64620;DHT22;51029;51.058;13.826;2023-07-13T13:21:49;44.90;22.50
64620;DHT22;51029;51.058;13.826;2023-07-13T13:24:19;46.60;21.10
64620;DHT22;51029;51.058;13.826;2023-07-13T13:26:45;48.30;20.60
64620;DHT22;51029;51.058;13.826;2023-07-13T13:29:13;46.40;20.50
64620;DHT22;51029;51.058;13.826;2023-07-13T13:31:39;46.60;20.70
64620;DHT22;51029;51.058;13.826;2023-07-13T13:34:09;43.10;21.80
64620;DHT22;51029;51.058;13.826;2023-07-13T13:36:35;41.70;22.20
64620;DHT22;51029;51.058;13.826;2023-07-13T13:39:01;42.50;23.50
64620;DHT22;51029;51.058;13.826;2023-07-13T13:41:27;41.00;22.50
64620;DHT22;51029;51.058;13.826;2023-07-13T13:43:53;37.20;25.80
64620;DHT22;51029;51.058;13.826;2023-07-13T13:46:20;35.00;27.30
64620;DHT22;51029;51.058;13.826;2023-07-13T13:48:47;35.00;28.50
64620;DHT22;51029;51.058;13.826;2023-07-13T13:51:17;38.60;27.00
64620;DHT22;51029;51.058;13.826;2023-07-13T13:53:43;42.00;24.10
64620;DHT22;51029;51.058;13.826;2023-07-13T13:56:09;42.50;22.90
64620;DHT22;51029;51.058;13.826;2023-07-13T13:58:35;40.60;23.40
64620;DHT22;51029;51.058;13.826;2023-07-13T14:01:00;37.00;25.20
64620;DHT22;51029;51.058;13.826;2023-07-13T14:03:26;37.70;27.30
64620;DHT22;51029;51.058;13.826;2023-07-13T14:05:53;37.50;26.60
64620;DHT22;51029;51.058;13.826;2023-07-13T14:08:21;36.00;27.10
64620;DHT22;51029;51.058;13.826;2023-07-13T14:10:50;38.10;27.50
64620;DHT22;51029;51.058;13.826;2023-07-13T14:13:24;38.20;25.10
64620;DHT22;51029;51.058;13.826;2023-07-13T14:15:53;39.70;25.40
64620;DHT22;51029;51.058;13.826;2023-07-13T14:18:19;40.40;24.80
64620;DHT22;51029;51.058;13.826;2023-07-13T14:20:45;41.50;24.20
64620;DHT22;51029;51.058;13.826;2023-07-13T14:23:13;39.30;23.80
64620;DHT22;51029;51.058;13.826;2023-07-13T14:25:39;36.40;26.00
64620;DHT22;51029;51.058;13.826;2023-07-13T14:28:23;35.20;27.90
64620;DHT22;51029;51.058;13.826;2023-07-13T14:30:50;34.50;28.80
64620;DHT22;51029;51.058;13.826;2023-07-13T14:33:16;33.60;29.80
64620;DHT22;51029;51.058;13.826;2023-07-13T14:35:42;33.00;30.90
64620;DHT22;51029;51.058;13.826;2023-07-13T14:38:14;32.60;31.40
64620;DHT22;51029;51.058;13.826;2023-07-13T14:40:40;36.80;29.50
64620;DHT22;51029;51.058;13.826;2023-07-13T14:43:10;36.10;28.20
64620;DHT22;51029;51.058;13.826;2023-07-13T14:45:42;38.50;26.90
64620;DHT22;51029;51.058;13.826;2023-07-13T14:48:22;38.70;25.70
64620;DHT22;51029;51.058;13.826;2023-07-13T14:50:53;38.80;25.70
64620;DHT22;51029;51.058;13.826;2023-07-13T14:53:20;40.60;25.00
64620;DHT22;51029;51.058;13.826;2023-07-13T14:55:45;40.50;25.00
64620;DHT22;51029;51.058;13.826;2023-07-13T14:58:11;41.20;24.70
64620;DHT22;51029;51.058;13.826;2023-07-13T15:00:39;42.00;24.20
64620;DHT22;51029;51.058;13.826;2023-07-13T15:03:06;39.00;24.30
64620;DHT22;51029;51.058;13.826;2023-07-13T15:05:40;35.50;26.70
64620;DHT22;51029;51.058;13.826;2023-07-13T15:08:07;33.50;28.90
64620;DHT22;51029;51.058;13.826;2023-07-13T15:10:34;32.10;30.60
64620;DHT22;51029;51.058;13.826;2023-07-13T15:13:14;32.00;31.70
64620;DHT22;51029;51.058;13.826;2023-07-13T15:15:43;30.40;32.20
64620;DHT22;51029;51.058;13.826;2023-07-13T15:18:13;30.60;33.40
64620;DHT22;51029;51.058;13.826;2023-07-13T15:20:39;30.90;32.70
64620;DHT22;51029;51.058;13.826;2023-07-13T15:23:05;31.10;32.00
64620;DHT22;51029;51.058;13.826;2023-07-13T15:25:32;30.90;31.80
64620;DHT22;51029;51.058;13.826;2023-07-13T15:27:58;30.70;33.20
64620;DHT22;51029;51.058;13.826;2023-07-13T15:30:30;30.00;33.20
64620;DHT22;51029;51.058;13.826;2023-07-13T15:32:58;29.80;34.40
64620;DHT22;51029;51.058;13.826;2023-07-13T15:35:26;29.30;34.20
64620;DHT22;51029;51.058;13.826;2023-07-13T15:37:53;29.20;34.70
64620;DHT22;51029;51.058;13.826;2023-07-13T15:40:20;29.00;35.10
64620;DHT22;51029;51.058;13.826;2023-07-13T15:42:47;29.20;35.30
64620;DHT22;51029;51.058;13.826;2023-07-13T15:45:22;29.40;35.50
64620;DHT22;51029;51.058;13.826;2023-07-13T15:47:49;29.40;34.30
64620;DHT22;51029;51.058;13.826;2023-07-13T15:50:20;29.50;34.20
64620;DHT22;51029;51.058;13.826;2023-07-13T15:52:48;29.50;34.60
64620;DHT22;51029;51.058;13.826;2023-07-13T15:55:15;29.20;33.30
64620;DHT22;51029;51.058;13.826;2023-07-13T15:57:48;28.90;34.60